Clara — V2CC9 — position and weather

sailwx.info

Track history (hours):
 
Tides and Currents Weather Stations Pressure Air Temp Water Temp Dewpoint Dewpoint Depression Visibility Wind Speed Wind Dir Waves Ship Positions

Clara

Last reported at 2015-Aug-07 02:09 UTC. Time now 2015-Aug-29 03:06 UTC.
Position N 40°46' E 029°29'.
Warning: this ship's position is 22 days out of date.

Length 108 m; draft 4.5 m.

Type: Cargo ship. MMSI: 304983000.

Date/timePositionNaut miles runAvg speedWind from/ knotsBaromVisibWave heightAir tempDewpointWater temp
2015-Aug-07 02:09N 40°46' E 029°29'4 6.5
2015-Aug-07 01:33N 40°44' E 029°24'7 7.0
2015-Aug-07 00:33N 40°43' E 029°15'1110.7
2015-Aug-06 23:33N 40°42' E 029°01'1111.0
2015-Aug-06 22:33N 40°37' E 028°48'15 7.5
2015-Aug-06 20:32N 40°25' E 029°01'3 0.1
2015-Aug-05 07:33N 40°25' E 029°05'  
2015-Jul-30 16:04N 36°32' E 015°52'510.4
2015-Jul-30 15:33N 36°32' E 015°45'1010.4
2015-Jul-30 14:33N 36°32' E 015°32'1010.3
2015-Jul-30 13:33N 36°31' E 015°19'1010.0
2015-Jul-30 12:33N 36°30' E 015°07'1010.2
2015-Jul-30 11:33N 36°30' E 014°54'1010.2
2015-Jul-30 10:33N 36°30' E 014°42'1010.0
2015-Jul-30 09:33N 36°32' E 014°29'1010.3
2015-Jul-30 08:33N 36°38' E 014°19'1010.2
2015-Jul-30 07:33N 36°44' E 014°09'1010.2
2015-Jul-30 06:33N 36°50' E 013°58'1010.4
2015-Jul-30 05:33N 36°53' E 013°46'1110.6
2015-Jul-30 04:31N 36°56' E 013°33'1010.5
2015-Jul-30 03:33N 36°59' E 013°21'1110.6
2015-Jul-30 02:31N 37°02' E 013°07'1010.2
2015-Jul-30 01:32N 37°05' E 012°55'10 9.9
2015-Jul-30 00:33N 37°08' E 012°44'1010.0
2015-Jul-29 23:32N 37°11' E 012°32'1010.1
2015-Jul-29 22:33N 37°14' E 012°20'1010.3
2015-Jul-29 21:33N 37°16' E 012°07'1110.7
2015-Jul-29 20:33N 37°19' E 011°54'1010.3
2015-Jul-29 19:33N 37°23' E 011°42'1010.1
2015-Jul-29 18:33N 37°25' E 011°30'1310.2
2015-Jul-29 17:19N 37°30' E 011°15'810.7
2015-Jul-29 16:33N 37°33' E 011°06'2110.6
2015-Jul-29 14:33N 37°38' E 010°39'2311.0
2015-Jul-29 12:25N 37°43' E 010°11'1411.3
2015-Jul-29 11:13N 37°43' E 009°53'911.3
2015-Jul-29 10:26N 37°43' E 009°42'1011.2
2015-Jul-29 09:32N 37°43' E 009°30'  
Track history (hours):
 
Tides and Currents Weather Stations Pressure Air Temp Water Temp Dewpoint Dewpoint Depression Visibility Wind Speed Wind Dir Waves Ship Positions

Clara

Last reported at 2015-Aug-07 02:09 UTC. Time now 2015-Aug-29 03:06 UTC.
Position N 40°46' E 029°29'.
Warning: this ship's position is 22 days out of date.

Length 108 m; draft 4.5 m.

Type: Cargo ship. MMSI: 304983000.

Date/timePositionNaut miles runAvg speedWind from/ knotsBaromVisibWave heightAir tempDewpointWater temp
2015-Aug-07 02:09N 40°46' E 029°29'4 6.5
2015-Aug-07 01:33N 40°44' E 029°24'7 7.0
2015-Aug-07 00:33N 40°43' E 029°15'1110.7
2015-Aug-06 23:33N 40°42' E 029°01'1111.0
2015-Aug-06 22:33N 40°37' E 028°48'15 7.5
2015-Aug-06 20:32N 40°25' E 029°01'3 0.1
2015-Aug-05 07:33N 40°25' E 029°05'  
2015-Jul-30 16:04N 36°32' E 015°52'510.4
2015-Jul-30 15:33N 36°32' E 015°45'1010.4
2015-Jul-30 14:33N 36°32' E 015°32'1010.3
2015-Jul-30 13:33N 36°31' E 015°19'1010.0
2015-Jul-30 12:33N 36°30' E 015°07'1010.2
2015-Jul-30 11:33N 36°30' E 014°54'1010.2
2015-Jul-30 10:33N 36°30' E 014°42'1010.0
2015-Jul-30 09:33N 36°32' E 014°29'1010.3
2015-Jul-30 08:33N 36°38' E 014°19'1010.2
2015-Jul-30 07:33N 36°44' E 014°09'1010.2
2015-Jul-30 06:33N 36°50' E 013°58'1010.4
2015-Jul-30 05:33N 36°53' E 013°46'1110.6
2015-Jul-30 04:31N 36°56' E 013°33'1010.5
2015-Jul-30 03:33N 36°59' E 013°21'1110.6
2015-Jul-30 02:31N 37°02' E 013°07'1010.2
2015-Jul-30 01:32N 37°05' E 012°55'10 9.9
2015-Jul-30 00:33N 37°08' E 012°44'1010.0
2015-Jul-29 23:32N 37°11' E 012°32'1010.1
2015-Jul-29 22:33N 37°14' E 012°20'1010.3
2015-Jul-29 21:33N 37°16' E 012°07'1110.7
2015-Jul-29 20:33N 37°19' E 011°54'1010.3
2015-Jul-29 19:33N 37°23' E 011°42'1010.1
2015-Jul-29 18:33N 37°25' E 011°30'1310.2
2015-Jul-29 17:19N 37°30' E 011°15'810.7
2015-Jul-29 16:33N 37°33' E 011°06'2110.6
2015-Jul-29 14:33N 37°38' E 010°39'2311.0
2015-Jul-29 12:25N 37°43' E 010°11'1411.3
2015-Jul-29 11:13N 37°43' E 009°53'911.3
2015-Jul-29 10:26N 37°43' E 009°42'1011.2
2015-Jul-29 09:32N 37°43' E 009°30'  

Dump ship's entire track history